Watertown Regional Airport
KATY : now visible

Airfield :











YOU CAN JOIN US ON...

 
LOGIN :

Register | Disclaimer

   EN    FR    IT 

 









Legend :    VFR   Marginal VFR   IFR   Intensive IFR   Very Intensive IFR
Visi :
Ceiling :
>= 8 km
>= 3000ft
5 to 8 km
1000 to 3000 ft
1500m to 5 km
500 to 1000 ft
800 to 1500m
200 to 500 ft
< 800m
< 200 ft
Symbols :   Thunderstorms  Fog  Heavy snow  Heavy precipitations  Wind > 20 kt






- Airport Elevation : 1749 ft
- IATA code : ATY


KATY - Watertown Regional

CURRENT METAR :
  • 181202Z AUTO 31027G39KT 2SM UP BR BKN012 BKN080 M17/M19 A2994 RMK AO2 PK WND 31039/1201 P0000 T11671189 $

EXPIRED METARs :
  • 181144Z AUTO 31027G37KT 1 3/4SM UP BKN012 BKN090 OVC120 M17/M19 A2992 RMK AO2 PK WND 30040/1134 UPB18SNE18 P0000 T11671194
  • 181133Z AUTO 31023G38KT 1 3/4SM UP BR SCT012 BKN027 OVC095 M17/M19 A2992 RMK AO2 PK WND 32040/1120 UPB18SNE18 P0000 T11671189
  • 181113Z AUTO 31025G36KT 1SM -SN BR BKN025 OVC095 M17/M19 A2991 RMK AO2 PK WND 31036/1108 P0000 T11671189
  • 181053Z AUTO 31023G36KT 3/4SM -SN BR VV020 M17/M19 A2992 RMK AO2 PK WND 31037/1043 SLP166 P0000 T11671189
  • 181024Z AUTO 31027G35KT 3/4SM -SN BR VV020 M17/M19 A2990 RMK AO2 PK WND 30036/1013 P0000 T11671189
  • 181017Z AUTO 31022G36KT 1SM -SN BR OVC024 M17/M18 A2990 RMK AO2 PK WND 30036/1013 P0000 T11671183
  • 180953Z AUTO 31023G35KT 3/4SM -SN BR OVC022 M16/M18 A2989 RMK AO2 PK WND 32040/0935 SLP157 P0000 T11611183
  • 180948Z AUTO 31023G32KT 1SM -SN BR OVC022 M16/M18 A2989 RMK AO2 PK WND 32040/0935 P0000
  • 180941Z AUTO 31020G40KT 3/4SM -SN BR OVC024 M16/M18 A2989 RMK AO2 PK WND 32040/0935 P0000 T11561178
  • 180927Z AUTO 31022G34KT 1/2SM -SN FZFG VV015 M16/M17 A2988 RMK AO2 PK WND 30036/0917 P0000 T11561172

TAF KATY
Valid from the 18 at 12:00 until the 19 at 12:00 UTC


181120Z 1812/1912 31023G36KT 3/4SM -SN BLSN VV020
TEMPO 1812/1816 1/4SM BLSN
FM181600 30025G38KT 3SM BLSN BKN040
FM190000 31021G30KT P6SM FEW070
FM190700 31017G23KT P6SM FEW050



MET'MAP, your aeronautical weather chart ! - Copyright ORBIFLY December 2007 - Disclaimer

ORBIFLY MET'MAP TEAM :

Programming & Development : Alexandra Zaïnal
Concept & original design : Baudouin d'Aumeries
Assistance for programming : Marc-Olivier Méhu
Technical & hardware support : Manuel Goepfert

Contact : metmap@orbifly.com




SOURCES & CREDITS :

   NOAA       Earth
Advisory